Terminal Aerodrome Forecast
Issued by NWS Melbourne, FL

Home | Current Version | Previous Version | Text Only | Print | Product List | Glossary On
Versions: 1 2 3 4 5 6 7 8 9 10 11 12 13 14 15 16 17 18 19 20 21 22 23
000
FTUS42 KMLB 221700
TAFMCO
TAF
KMCO 221737Z 2218/2318 21004KT P6SM SCT029 SCT170 BKN220
     FM222000 10007KT P6SM VCTS SCT045CB SCT080 BKN250
      TEMPO 2220/2222 2SM TSRA BKN025CB
     FM230100 14005KT P6SM FEW020 SCT100 OVC250
     FM230600 17002KT P6SM FEW010 SCT250
     FM231400 19005KT P6SM SCT020=

USA.gov is the U.S. government's official web portal to all federal, state and local government web resources and services.